Time;durP1;ratioP1;P1;durP2;ratioP2;P2;SDS_P1;SDS_P2;PMS_P1;PMS_P2;Temp;Humidity;BMP_temperature;BMP_pressure;BME280_temperature;BME280_humidity;BME280_pressure;Samples;Min_cycle;Max_cycle;Signal;HPM_P1;HPM_P2
2023/11/20 00:01:24;;;;;;;16.05;3.70;;;;;;;14.91;68.44;100741.06;6139457;23;123537;-82
2023/11/20 00:03:51;;;;;;;16.63;4.20;;;;;;;14.92;68.40;100748.13;6138846;23;114060;-84
2023/11/20 00:06:19;;;;;;;20.08;4.18;;;;;;;14.90;68.57;100755.38;6141713;23;115611;-82
2023/11/20 00:08:46;;;;;;;19.17;3.83;;;;;;;14.90;68.43;100750.03;6142441;23;124459;-82
2023/11/20 00:11:15;;;;;;;14.15;3.70;;;;;;;14.90;68.49;100755.38;6142201;23;124391;-83
2023/11/20 00:13:44;;;;;;;17.35;3.90;;;;;;;14.91;68.56;100756.22;6138511;23;113522;-82
2023/11/20 00:16:12;;;;;;;19.05;3.83;;;;;;;14.91;68.57;100761.53;6135591;23;114978;-82
2023/11/20 00:18:40;;;;;;;17.23;3.90;;;;;;;14.90;68.52;100758.03;6107864;23;124600;-81
2023/11/20 00:21:07;;;;;;;18.55;3.85;;;;;;;14.90;68.50;100750.03;6134487;23;123837;-84
2023/11/20 00:23:35;;;;;;;14.23;3.67;;;;;;;14.90;68.52;100750.03;6110732;23;113321;-84
2023/11/20 00:26:02;;;;;;;17.40;3.97;;;;;;;14.91;68.49;100750.88;6136042;23;114470;-83
2023/11/20 00:28:30;;;;;;;12.95;3.42;;;;;;;14.90;68.56;100752.69;6111083;23;123334;-82
2023/11/20 00:30:57;;;;;;;14.02;3.28;;;;;;;14.90;68.49;100755.38;6109415;23;123682;-84
2023/11/20 00:33:24;;;;;;;11.68;3.33;;;;;;;14.91;68.40;100750.88;6137031;23;113798;-82
2023/11/20 00:35:51;;;;;;;21.05;4.28;;;;;;;14.91;68.54;100751.72;6144923;22;114871;-82
2023/11/20 00:38:18;;;;;;;21.83;4.00;;;;;;;14.90;68.50;100750.03;6143365;22;123545;-83
2023/11/20 00:40:45;;;;;;;20.77;3.97;;;;;;;14.91;68.54;100757.06;6113573;23;122095;-83
2023/11/20 00:43:13;;;;;;;15.32;3.30;;;;;;;14.92;68.59;100764.13;6138906;23;113547;-83
2023/11/20 00:45:40;;;;;;;18.42;3.40;;;;;;;14.92;68.29;100753.44;6139716;23;114310;-83
2023/11/20 00:48:07;;;;;;;15.45;3.42;;;;;;;14.93;68.37;100754.31;6110945;23;123188;-82
2023/11/20 00:50:35;;;;;;;21.17;3.50;;;;;;;14.93;68.41;100760.47;6136141;23;121781;-84
2023/11/20 00:53:03;;;;;;;15.88;3.65;;;;;;;14.95;68.29;100763.06;6139504;23;114389;-83
2023/11/20 00:55:30;;;;;;;17.05;3.80;;;;;;;14.95;68.34;100763.91;6141161;23;114636;-83
2023/11/20 00:57:57;;;;;;;13.85;3.40;;;;;;;14.97;68.25;100767.34;6140198;23;124991;-83
2023/11/20 01:00:25;;;;;;;19.58;3.70;;;;;;;14.99;68.17;100776.13;6137499;23;123621;-82
2023/11/20 01:02:52;;;;;;;14.88;3.45;;;;;;;14.99;68.16;100770.78;6139459;23;114000;-83
2023/11/20 01:05:22;;;;;;;12.70;3.22;;;;;;;15.03;68.11;100765.22;6111296;23;113045;-83
2023/11/20 01:07:49;;;;;;;15.93;3.30;;;;;;;15.03;68.27;100762.56;6124592;23;124024;-83
2023/11/20 01:10:16;;;;;;;12.85;3.40;;;;;;;15.04;67.93;100766.94;6124399;23;124421;-83
2023/11/20 01:12:44;;;;;;;16.30;3.45;;;;;;;15.04;68.03;100766.94;6122960;23;114722;-85
2023/11/20 01:15:11;;;;;;;21.70;3.30;;;;;;;15.06;67.88;100765.03;6123407;23;113435;-83
2023/11/20 01:17:39;;;;;;;14.15;3.20;;;;;;;15.06;67.63;100765.03;6121731;23;124579;-82
2023/11/20 01:20:07;;;;;;;15.65;3.50;;;;;;;15.06;67.72;100765.03;6122656;23;124681;-82
2023/11/20 01:22:34;;;;;;;10.85;3.35;;;;;;;15.06;67.66;100765.88;6121476;23;112674;-81
2023/11/20 01:25:01;;;;;;;17.25;3.40;;;;;;;15.05;67.71;100768.63;6122291;23;114010;-82
2023/11/20 01:27:28;;;;;;;15.90;3.35;;;;;;;15.09;67.61;100775.50;6122501;23;123527;-82
2023/11/20 01:29:56;;;;;;;17.95;3.38;;;;;;;15.07;67.50;100772.06;6123552;23;123818;-80
2023/11/20 01:32:24;;;;;;;20.23;3.22;;;;;;;15.08;67.39;100765.78;6124332;23;115659;-82
2023/11/20 01:34:51;;;;;;;16.05;3.47;;;;;;;15.08;67.29;100773.78;6122018;23;115203;-81
2023/11/20 01:37:18;;;;;;;14.05;3.15;;;;;;;15.08;67.34;100779.13;6095542;23;121699;-82
2023/11/20 01:39:45;;;;;;;11.77;3.10;;;;;;;15.09;67.35;100775.50;6120828;23;122822;-84
2023/11/20 01:42:13;;;;;;;14.52;3.28;;;;;;;15.09;67.24;100780.84;6124463;23;114573;-82
2023/11/20 01:44:40;;;;;;;14.38;3.13;;;;;;;15.11;67.10;100784.28;6122981;23;113353;-81
2023/11/20 01:47:07;;;;;;;17.85;3.42;;;;;;;15.12;67.03;100783.31;6121245;23;123136;-83
2023/11/20 01:49:35;;;;;;;19.10;3.03;;;;;;;15.13;67.04;100787.69;6124173;23;124158;-82
2023/11/20 01:52:02;;;;;;;18.35;2.50;;;;;;;15.13;67.17;100783.19;6123902;23;113892;-81
2023/11/20 01:54:31;;;;;;;16.38;3.20;;;;;;;15.13;66.81;100777.03;6120818;23;113279;-83
2023/11/20 01:57:01;;;;;;;15.98;3.50;;;;;;;15.13;66.73;100782.34;6122915;23;123139;-81
2023/11/20 01:59:29;;;;;;;18.13;3.08;;;;;;;15.14;66.73;100781.38;6121387;23;124061;-81
2023/11/20 02:01:57;;;;;;;16.10;2.92;;;;;;;15.14;66.71;100787.59;6122289;23;114099;-83
2023/11/20 02:04:27;;;;;;;18.00;3.10;;;;;;;15.15;66.47;100788.44;6121579;23;113013;-84
2023/11/20 02:06:54;;;;;;;14.98;2.90;;;;;;;15.16;66.67;100782.13;6122689;23;122237;-81
2023/11/20 02:09:22;;;;;;;12.98;2.97;;;;;;;15.16;66.52;100783.00;6124763;23;123172;-83
2023/11/20 02:11:50;;;;;;;17.00;3.47;;;;;;;15.18;66.61;100791.78;6123256;23;114015;-83
2023/11/20 02:14:17;;;;;;;20.27;3.53;;;;;;;15.19;66.52;100792.63;6122858;23;113842;-82
2023/11/20 02:16:44;;;;;;;16.65;3.50;;;;;;;15.17;66.40;100783.88;6122654;23;122326;-82
2023/11/20 02:19:13;;;;;;;19.63;3.70;;;;;;;15.17;66.48;100789.19;6120901;23;123109;-82
2023/11/20 02:21:42;;;;;;;23.27;4.00;;;;;;;15.16;66.22;100787.47;6123627;23;114746;-84
2023/11/20 02:24:10;;;;;;;14.93;3.65;;;;;;;15.16;66.40;100777.69;6123401;23;114999;-82
2023/11/20 02:27:01;;;;;;;20.15;3.83;;;;;;;15.16;66.25;100788.34;6122618;23;124758;-82
2023/11/20 02:29:32;;;;;;;15.82;4.05;;;;;;;15.16;66.33;100776.81;6122857;23;123939;-83
2023/11/20 02:31:59;;;;;;;13.27;3.53;;;;;;;15.14;66.26;100778.72;6097952;23;113881;-83
2023/11/20 02:34:26;;;;;;;20.20;3.90;;;;;;;15.13;66.28;100774.34;6096496;23;113755;-82
2023/11/20 02:36:58;;;;;;;16.70;3.88;;;;;;;15.11;66.30;100774.44;6120682;23;122992;-82
2023/11/20 02:39:25;;;;;;;14.18;3.80;;;;;;;15.10;66.38;100771.88;6121920;23;123285;-84
2023/11/20 02:41:52;;;;;;;19.15;3.97;;;;;;;15.10;66.25;100779.88;6123776;23;114548;-83
2023/11/20 02:44:19;;;;;;;15.52;3.35;;;;;;;15.08;66.28;100779.97;6121755;23;112243;-82
2023/11/20 02:46:47;;;;;;;13.80;3.38;;;;;;;15.06;66.30;100775.69;6122208;23;123710;-83
2023/11/20 02:49:14;;;;;;;18.77;4.00;;;;;;;15.05;66.39;100771.31;6122272;23;122853;-84
2023/11/20 02:51:42;;;;;;;16.42;3.30;;;;;;;15.03;66.22;100765.22;6121546;23;114173;-82
2023/11/20 02:54:09;;;;;;;18.40;3.50;;;;;;;15.02;66.10;100758.19;6122732;23;112872;-83
2023/11/20 02:56:40;;;;;;;13.30;3.25;;;;;;;14.98;66.06;100777.06;6121099;23;123879;-83
2023/11/20 02:59:08;;;;;;;18.83;3.70;;;;;;;14.96;66.18;100764.78;6124379;23;123882;-82
2023/11/20 03:01:36;;;;;;;16.67;3.55;;;;;;;14.94;66.17;100762.22;6097007;23;115315;-82
2023/11/20 03:04:04;;;;;;;17.50;3.35;;;;;;;14.93;66.19;100755.16;6123668;23;114044;-84
2023/11/20 03:06:31;;;;;;;24.92;3.33;;;;;;;14.92;66.02;100758.78;6119979;23;122304;-84
2023/11/20 03:08:59;;;;;;;12.50;3.05;;;;;;;14.90;66.11;100763.38;6122639;23;123620;-82
2023/11/20 03:11:26;;;;;;;15.77;3.15;;;;;;;14.88;66.01;100773.28;6119083;23;114834;-85
2023/11/20 03:13:53;;;;;;;21.65;3.38;;;;;;;14.88;66.08;100772.41;6124463;23;115947;-83
2023/11/20 03:16:22;;;;;;;12.45;3.25;;;;;;;14.85;66.29;100777.94;6122958;23;123222;-84
2023/11/20 03:18:49;;;;;;;16.95;3.50;;;;;;;14.85;66.32;100780.63;6122665;23;122160;-82
2023/11/20 03:21:16;;;;;;;17.95;3.40;;;;;;;14.83;66.09;100775.38;6097532;23;113693;-83
2023/11/20 03:23:45;;;;;;;13.00;2.88;;;;;;;14.82;66.18;100773.66;6123948;23;113834;-83
2023/11/20 03:26:12;;;;;;;16.80;3.60;;;;;;;14.79;66.18;100780.03;6099065;23;122462;-83
2023/11/20 03:28:39;;;;;;;11.90;3.15;;;;;;;14.78;66.17;100778.31;6099786;23;124433;-84
2023/11/20 03:31:06;;;;;;;22.67;3.33;;;;;;;14.79;66.16;100779.19;6123328;23;113431;-83
2023/11/20 03:33:33;;;;;;;15.93;3.00;;;;;;;14.77;66.50;100786.44;6099710;23;112050;-82
2023/11/20 03:36:01;;;;;;;13.50;3.22;;;;;;;14.75;66.11;100783.00;6124096;23;123537;-83
2023/11/20 03:38:28;;;;;;;19.08;3.22;;;;;;;14.75;66.23;100788.34;6125251;23;123986;-82
2023/11/20 03:40:55;;;;;;;18.77;3.58;;;;;;;14.75;66.25;100799.00;6123999;23;113733;-83
2023/11/20 03:43:23;;;;;;;13.90;2.90;;;;;;;14.73;66.03;100798.22;6126924;23;114288;-85
2023/11/20 03:45:51;;;;;;;18.15;3.42;;;;;;;14.73;66.17;100800.91;6123213;23;123680;-83
2023/11/20 03:48:18;;;;;;;13.95;3.47;;;;;;;14.71;66.21;100803.69;6124541;23;123062;-84
2023/11/20 03:50:45;;;;;;;13.07;3.00;;;;;;;14.69;66.15;100805.59;6123663;23;112342;-82
2023/11/20 03:53:12;;;;;;;14.00;3.28;;;;;;;14.68;66.13;100808.34;6151094;22;113876;-83
2023/11/20 03:55:40;;;;;;;11.45;3.03;;;;;;;14.65;66.14;100809.38;6126240;23;124348;-83
2023/11/20 03:58:07;;;;;;;19.52;3.47;;;;;;;14.64;65.90;100806.84;6127452;23;124113;-82
2023/11/20 04:00:35;;;;;;;17.13;3.60;;;;;;;14.62;66.14;100798.03;6129836;23;115667;-83
2023/11/20 04:03:02;;;;;;;17.20;3.22;;;;;;;14.62;66.28;100798.03;6127970;23;114907;-83
2023/11/20 04:05:30;;;;;;;18.00;3.50;;;;;;;14.60;66.04;100800.84;6128463;23;123622;-83
2023/11/20 04:07:57;;;;;;;13.52;3.15;;;;;;;14.58;66.75;100795.59;6127808;23;123197;-82
2023/11/20 04:10:24;;;;;;;16.23;3.20;;;;;;;14.57;66.29;100799.19;6127811;23;113898;-83
2023/11/20 04:12:51;;;;;;;23.95;3.35;;;;;;;14.56;66.41;100794.81;6128949;23;112277;-82
2023/11/20 04:15:18;;;;;;;20.92;3.50;;;;;;;14.53;66.26;100792.31;6129546;23;124569;-84
2023/11/20 04:17:46;;;;;;;15.80;3.58;;;;;;;14.52;66.34;100795.94;6133039;23;124386;-83
2023/11/20 04:20:13;;;;;;;15.77;3.55;;;;;;;14.50;66.28;100800.50;6131616;23;114463;-83
2023/11/20 04:22:41;;;;;;;14.75;3.63;;;;;;;14.50;66.36;100800.50;6131558;23;114723;-83
2023/11/20 04:25:08;;;;;;;15.63;3.22;;;;;;;14.48;66.33;100797.06;6132825;23;123664;-80
2023/11/20 04:27:36;;;;;;;18.70;3.97;;;;;;;14.47;66.27;100800.69;6156834;22;123943;-80
2023/11/20 04:30:05;;;;;;;15.65;4.03;;;;;;;14.46;66.46;100804.31;6134445;23;114239;-81
2023/11/20 04:32:32;;;;;;;22.15;3.97;;;;;;;14.46;66.40;100804.31;6131512;23;113902;-81
2023/11/20 04:34:59;;;;;;;15.48;3.53;;;;;;;14.44;66.41;100795.56;6133849;23;123786;-80
2023/11/20 04:37:26;;;;;;;16.08;4.38;;;;;;;14.44;66.30;100806.22;6131496;23;124051;-80
2023/11/20 04:39:54;;;;;;;22.23;4.60;;;;;;;14.43;66.47;100798.31;6132449;23;113870;-80
2023/11/20 04:42:21;;;;;;;15.48;4.18;;;;;;;14.41;66.40;100801.09;6132347;23;113944;-80
2023/11/20 04:44:49;;;;;;;14.15;4.40;;;;;;;14.40;66.34;100799.38;6131534;23;124232;-80
2023/11/20 04:47:16;;;;;;;19.35;5.03;;;;;;;14.40;66.42;100802.03;6130145;23;123288;-80
2023/11/20 04:49:43;;;;;;;16.17;5.05;;;;;;;14.39;66.48;100808.28;6134390;23;115174;-81
2023/11/20 04:52:10;;;;;;;14.93;4.30;;;;;;;14.36;66.41;100793.38;6137805;23;114411;-80
2023/11/20 04:54:38;;;;;;;17.25;4.13;;;;;;;14.37;66.48;100794.22;6161452;22;124438;-81
2023/11/20 04:57:05;;;;;;;15.27;3.72;;;;;;;14.35;66.48;100796.13;6136171;23;124634;-81
2023/11/20 04:59:32;;;;;;;18.08;3.70;;;;;;;14.34;66.30;100799.75;6136545;23;114745;-81
2023/11/20 05:01:59;;;;;;;19.60;3.65;;;;;;;14.32;66.54;100801.66;6134786;23;112020;-80
2023/11/20 05:04:26;;;;;;;14.00;3.50;;;;;;;14.32;66.24;100796.31;6135668;23;124510;-81
2023/11/20 05:06:54;;;;;;;18.83;4.03;;;;;;;14.32;66.41;100791.00;6135452;23;122056;-80
2023/11/20 05:09:23;;;;;;;15.00;3.50;;;;;;;14.33;66.54;100792.69;6159153;22;114016;-80
2023/11/20 05:11:50;;;;;;;15.20;3.78;;;;;;;14.34;66.58;100794.41;6136897;23;113940;-80
2023/11/20 05:14:17;;;;;;;15.30;3.50;;;;;;;14.35;66.53;100798.78;6132619;23;124258;-80
2023/11/20 05:16:44;;;;;;;18.10;3.70;;;;;;;14.35;66.64;100786.34;6155299;22;124582;-80
2023/11/20 05:19:12;;;;;;;13.00;3.90;;;;;;;14.36;66.50;100787.19;6132132;23;112281;-81
2023/11/20 05:21:44;;;;;;;15.27;3.00;;;;;;;14.36;66.37;100793.38;6135544;23;113220;-82
2023/11/20 05:24:12;;;;;;;12.73;3.83;;;;;;;14.36;66.42;100800.50;6130782;23;123567;-79
2023/11/20 05:26:39;;;;;;;16.52;3.40;;;;;;;14.37;66.51;100796.88;6132214;23;123702;-80
2023/11/20 05:29:07;;;;;;;12.20;3.50;;;;;;;14.38;66.53;100801.28;6134895;23;115061;-80
2023/11/20 05:31:34;;;;;;;15.70;3.83;;;;;;;14.39;66.47;100808.28;6133020;23;113923;-80
2023/11/20 05:34:01;;;;;;;12.43;4.15;;;;;;;14.40;66.49;100802.03;6132391;23;124127;-80
2023/11/20 05:36:29;;;;;;;14.38;4.05;;;;;;;14.39;66.47;100797.63;6132383;23;124484;-80
2023/11/20 05:38:56;;;;;;;16.88;4.40;;;;;;;14.42;66.66;100802.78;6129272;23;114998;-80
2023/11/20 05:41:23;;;;;;;16.88;4.60;;;;;;;14.43;66.50;100809.84;6132098;23;114993;-80
2023/11/20 05:43:50;;;;;;;14.52;3.80;;;;;;;14.44;66.48;100795.56;6133776;23;124056;-80
2023/11/20 05:46:17;;;;;;;16.35;4.22;;;;;;;14.44;66.42;100800.88;6131659;23;124449;-81
2023/11/20 05:48:45;;;;;;;19.95;4.53;;;;;;;14.44;66.54;100806.22;6133699;23;114450;-81
2023/11/20 05:51:18;;;;;;;20.13;4.45;;;;;;;14.45;66.35;100807.94;6142854;23;113888;-81
2023/11/20 05:53:46;;;;;;;20.58;4.38;;;;;;;14.44;66.36;100800.88;6146129;22;127308;-80
2023/11/20 05:56:13;;;;;;;20.98;4.43;;;;;;;14.45;66.55;100802.59;6171911;22;124515;-79
2023/11/20 05:58:40;;;;;;;15.38;4.32;;;;;;;14.44;66.59;100800.88;6139565;23;112768;-80
2023/11/20 06:01:07;;;;;;;15.63;3.90;;;;;;;14.45;66.55;100807.94;6134616;23;114323;-80
2023/11/20 06:03:35;;;;;;;19.05;3.80;;;;;;;14.44;66.33;100806.22;6129269;23;124495;-81
2023/11/20 06:06:03;;;;;;;14.95;3.70;;;;;;;14.44;66.51;100806.22;6132288;23;123572;-81
2023/11/20 06:08:31;;;;;;;21.38;4.30;;;;;;;14.44;66.31;100811.53;6132009;23;113806;-81
2023/11/20 06:10:58;;;;;;;16.77;3.88;;;;;;;14.42;66.45;100818.78;6133686;23;115194;-81
2023/11/20 06:13:25;;;;;;;18.52;4.55;;;;;;;14.42;66.22;100818.78;6131191;23;122695;-80
2023/11/20 06:15:53;;;;;;;12.82;3.20;;;;;;;14.43;66.39;100822.28;6129704;23;123712;-80
2023/11/20 06:18:20;;;;;;;17.40;3.97;;;;;;;14.42;66.21;100818.78;6130374;23;112745;-81
2023/11/20 06:20:48;;;;;;;24.52;4.40;;;;;;;14.42;66.30;100818.78;6131249;23;114059;-81
2023/11/20 06:23:15;;;;;;;22.73;4.75;;;;;;;14.41;66.36;100811.75;6130776;23;124193;-80
2023/11/20 06:25:42;;;;;;;12.40;3.47;;;;;;;14.40;66.12;100820.69;6130976;23;123442;-82
2023/11/20 06:28:09;;;;;;;18.23;4.00;;;;;;;14.40;66.29;100815.34;6129859;23;114673;-80
2023/11/20 06:30:37;;;;;;;17.33;3.80;;;;;;;14.38;66.16;100812.78;6134591;23;115173;-81
2023/11/20 06:33:04;;;;;;;16.23;3.70;;;;;;;14.36;66.20;100819.16;6134295;23;122702;-79
2023/11/20 06:35:32;;;;;;;15.77;3.28;;;;;;;14.34;66.02;100826.41;6134572;23;123994;-80
2023/11/20 06:38:08;;;;;;;19.52;3.63;;;;;;;14.29;65.98;100831.13;6135130;23;113950;-80
2023/11/20 06:40:52;;;;;;;16.33;3.60;;;;;;;14.25;65.98;100827.81;6160610;22;113359;-80
2023/11/20 06:43:19;;;;;;;15.13;3.58;;;;;;;14.23;66.00;100831.50;6135805;23;123394;-80
2023/11/20 06:45:46;;;;;;;13.80;3.30;;;;;;;14.19;65.99;100829.03;6137809;23;123659;-80
2023/11/20 06:48:13;;;;;;;16.85;3.60;;;;;;;14.18;66.01;100838.00;6139803;23;114829;-80
2023/11/20 06:53:44;;;;;;;19.27;3.95;;;;;;;14.10;65.85;100845.56;6141953;22;124004;-80
2023/11/20 06:56:21;;;;;;;18.73;3.10;;;;;;;14.08;65.88;100847.47;6142835;22;124837;-81
2023/11/20 06:58:48;;;;;;;16.95;3.13;;;;;;;14.04;65.86;100851.25;6141970;22;114928;-81
2023/11/20 07:01:17;;;;;;;11.57;2.70;;;;;;;14.03;65.87;100846.88;6140650;22;113689;-80
2023/11/20 07:03:44;;;;;;;13.38;3.00;;;;;;;14.00;65.82;100844.41;6143040;22;125000;-80
2023/11/20 07:06:14;;;;;;;16.15;2.85;;;;;;;13.99;66.02;100843.56;6139714;23;124130;-80
2023/11/20 07:08:42;;;;;;;12.20;2.92;;;;;;;13.98;65.96;100840.97;6138333;23;114988;-79
2023/11/20 07:11:10;;;;;;;14.95;3.45;;;;;;;13.98;65.78;100846.31;6136697;23;113156;-78
2023/11/20 07:13:37;;;;;;;16.23;3.20;;;;;;;13.96;65.78;100848.22;6127710;23;122432;-79
2023/11/20 07:16:05;;;;;;;17.92;3.30;;;;;;;13.95;65.74;100846.47;6134723;23;123267;-79
2023/11/20 07:18:33;;;;;;;20.40;3.33;;;;;;;13.94;65.72;100852.75;6138849;22;114724;-79
2023/11/20 07:21:00;;;;;;;14.70;2.78;;;;;;;13.94;65.67;100860.75;6135757;22;114446;-79
2023/11/20 07:23:27;;;;;;;25.90;3.67;;;;;;;13.91;65.69;100860.91;6128645;23;124737;-79
2023/11/20 07:25:54;;;;;;;19.27;3.67;;;;;;;13.89;65.74;100868.16;6127865;23;123605;-79
2023/11/20 07:28:22;;;;;;;19.95;3.28;;;;;;;13.88;65.81;100871.75;6133458;23;113909;-80
2023/11/20 07:30:49;;;;;;;13.90;3.35;;;;;;;13.85;65.59;100866.63;6131117;23;113239;-79
2023/11/20 07:33:16;;;;;;;18.42;3.22;;;;;;;13.83;65.62;100870.22;6135983;23;124928;-78
2023/11/20 07:35:44;;;;;;;17.45;3.30;;;;;;;13.81;65.44;100866.78;6139851;23;123324;-79
2023/11/20 07:38:11;;;;;;;18.10;3.25;;;;;;;13.78;65.42;100866.94;6142990;22;114210;-79
2023/11/20 07:40:38;;;;;;;14.85;3.20;;;;;;;13.76;65.48;100874.16;6137350;23;113679;-79
2023/11/20 07:43:05;;;;;;;13.55;3.60;;;;;;;13.73;65.57;100873.50;6104653;23;122254;-79
2023/11/20 07:45:34;;;;;;;18.15;3.70;;;;;;;13.71;65.46;100870.94;6134233;23;122068;-82
2023/11/20 07:48:02;;;;;;;18.23;3.25;;;;;;;13.70;65.46;100879.00;6134529;22;114848;-79
2023/11/20 07:50:29;;;;;;;21.50;3.60;;;;;;;13.68;65.70;100889.72;6134629;23;114476;-80
2023/11/20 07:52:56;;;;;;;13.52;3.67;;;;;;;13.68;65.53;100881.75;6158880;22;126027;-79
2023/11/20 07:55:24;;;;;;;20.05;3.45;;;;;;;13.65;65.41;100873.94;6141088;23;124559;-79
2023/11/20 07:57:51;;;;;;;16.25;3.63;;;;;;;13.64;65.58;100885.53;6138675;22;114837;-79
2023/11/20 08:00:19;;;;;;;18.98;3.45;;;;;;;13.65;65.74;100891.72;6145149;22;114718;-80
2023/11/20 08:02:46;;;;;;;17.15;3.40;;;;;;;13.65;65.76;100889.91;6138769;23;126546;-79
2023/11/20 08:05:18;;;;;;;13.27;2.97;;;;;;;13.64;65.85;100885.53;6140130;23;125073;-79
2023/11/20 08:07:46;;;;;;;16.73;4.00;;;;;;;13.66;65.98;100882.78;6139261;22;115207;-79
2023/11/20 08:10:13;;;;;;;17.67;2.78;;;;;;;13.66;65.82;100878.31;6142156;23;114570;-79
2023/11/20 08:12:41;;;;;;;15.38;3.53;;;;;;;13.66;65.82;100883.66;6143424;23;124339;-79
2023/11/20 08:15:11;;;;;;;13.73;3.00;;;;;;;13.68;65.82;100892.41;6136426;23;122188;-79
2023/11/20 08:17:40;;;;;;;15.27;3.10;;;;;;;13.69;65.77;100894.09;6134377;22;114825;-79
2023/11/20 08:20:08;;;;;;;16.52;2.92;;;;;;;13.69;65.75;100894.09;6138250;23;113851;-79
2023/11/20 08:22:36;;;;;;;19.70;3.17;;;;;;;13.69;65.65;100888.78;6137352;23;124868;-79
2023/11/20 08:25:04;;;;;;;14.25;2.72;;;;;;;13.72;65.79;100890.41;6139316;23;124268;-79
2023/11/20 08:27:31;;;;;;;19.13;3.60;;;;;;;13.71;65.85;100892.22;6136328;23;114569;-80
2023/11/20 08:29:58;;;;;;;19.75;2.80;;;;;;;13.73;65.76;100898.31;6133959;23;113597;-79
2023/11/20 08:32:26;;;;;;;19.33;2.90;;;;;;;13.74;65.75;100901.84;6132986;22;122641;-79
2023/11/20 08:34:53;;;;;;;19.30;2.72;;;;;;;13.76;65.87;100900.78;6140277;22;124601;-79
2023/11/20 08:37:22;;;;;;;22.00;3.90;;;;;;;13.76;65.82;100890.16;6111324;23;113000;-81
2023/11/20 08:39:49;;;;;;;17.05;3.47;;;;;;;13.78;65.91;100898.91;6138868;23;113239;-79
2023/11/20 08:42:17;;;;;;;23.38;3.75;;;;;;;13.80;65.81;100894.34;6128332;23;123599;-80
2023/11/20 08:44:44;;;;;;;16.85;3.10;;;;;;;13.81;65.82;100890.75;6134733;23;123130;-80
2023/11/20 08:47:11;;;;;;;16.55;3.13;;;;;;;13.85;65.91;100893.25;6109730;23;112891;-79
2023/11/20 08:49:39;;;;;;;17.75;3.40;;;;;;;13.88;66.23;100893.03;6139790;23;113382;-79
2023/11/20 08:52:06;;;;;;;15.02;3.60;;;;;;;13.92;65.83;100894.56;6136063;23;123839;-80
2023/11/20 08:54:36;;;;;;;16.67;2.95;;;;;;;13.96;66.07;100890.81;6135852;23;125883;-79
2023/11/20 08:57:05;;;;;;;19.85;3.40;;;;;;;13.98;65.78;100880.91;6134573;23;116002;-79
2023/11/20 08:59:32;;;;;;;20.80;3.20;;;;;;;14.00;65.70;100889.69;6136370;23;114696;-79
2023/11/20 09:01:59;;;;;;;19.77;3.72;;;;;;;14.01;65.73;100888.72;6135560;23;124940;-80
2023/11/20 09:04:27;;;;;;;20.67;3.88;;;;;;;14.02;65.54;100885.13;6132288;23;124018;-79
2023/11/20 09:06:54;;;;;;;18.63;3.80;;;;;;;14.02;65.58;100882.44;6136149;23;114351;-79
2023/11/20 09:09:21;;;;;;;20.77;4.30;;;;;;;14.05;65.76;100884.91;6131755;23;114615;-79
2023/11/20 09:11:49;;;;;;;15.63;3.53;;;;;;;14.09;65.84;100875.81;6156805;22;124678;-80
2023/11/20 09:14:16;;;;;;;16.33;3.50;;;;;;;14.16;65.66;100882.47;6129684;23;122875;-80
2023/11/20 09:16:44;;;;;;;18.58;3.72;;;;;;;14.20;65.90;100878.72;6131329;23;114591;-80
2023/11/20 09:19:11;;;;;;;18.13;3.72;;;;;;;14.26;65.96;100881.94;6127581;23;111753;-80
2023/11/20 09:21:38;;;;;;;14.05;3.85;;;;;;;14.30;65.76;100873.69;6128764;23;122520;-81
2023/11/20 09:24:06;;;;;;;18.52;4.40;;;;;;;14.34;65.79;100874.34;6129869;23;123763;-80
2023/11/20 09:26:33;;;;;;;20.40;4.25;;;;;;;14.39;65.61;100877.56;6132704;23;114532;-82
2023/11/20 09:29:00;;;;;;;19.70;4.15;;;;;;;14.41;65.42;100881.03;6128012;23;114061;-79
2023/11/20 09:31:28;;;;;;;15.80;4.60;;;;;;;14.40;65.37;100874.81;6126109;23;123947;-80
2023/11/20 09:33:56;;;;;;;15.10;4.10;;;;;;;14.44;65.34;100880.81;6132380;23;124372;-81
2023/11/20 09:36:24;;;;;;;14.73;4.63;;;;;;;14.47;65.45;100879.81;6129746;23;113757;-80
2023/11/20 09:38:51;;;;;;;16.80;4.45;;;;;;;14.52;65.38;100877.69;6124961;23;114101;-80
2023/11/20 09:41:18;;;;;;;18.75;4.25;;;;;;;14.55;65.25;100873.03;6126637;23;124433;-80
2023/11/20 09:43:51;;;;;;;19.42;4.60;;;;;;;14.57;65.04;100871.16;6120801;23;122497;-80
2023/11/20 09:46:20;;;;;;;18.73;3.90;;;;;;;14.59;64.90;100879.91;6122645;23;114814;-80
2023/11/20 09:48:48;;;;;;;15.00;3.92;;;;;;;14.59;64.70;100885.25;6120708;23;113543;-80
2023/11/20 09:51:23;;;;;;;13.85;3.88;;;;;;;14.60;64.92;100878.97;6122092;23;123897;-81
2023/11/20 09:53:52;;;;;;;15.52;3.70;;;;;;;14.63;64.80;100885.06;6123917;23;124363;-80
2023/11/20 09:56:19;;;;;;;15.88;3.83;;;;;;;14.64;64.70;100881.47;6122811;23;114083;-79
2023/11/20 09:58:47;;;;;;;15.70;3.90;;;;;;;14.68;64.78;100875.00;6124058;23;114386;-80
2023/11/20 10:01:15;;;;;;;16.77;4.05;;;;;;;14.73;64.81;100875.53;6120791;23;122906;-79
2023/11/20 10:03:43;;;;;;;14.90;4.00;;;;;;;14.79;64.87;100869.84;6119900;23;122561;-80
2023/11/20 10:06:14;;;;;;;14.15;4.47;;;;;;;14.83;64.91;100866.03;6121330;23;112375;-80
2023/11/20 10:08:46;;;;;;;16.65;4.25;;;;;;;14.88;64.57;100869.28;6122831;23;114306;-80
2023/11/20 10:11:16;;;;;;;15.98;4.40;;;;;;;14.88;64.45;100858.63;6119711;23;123858;-81
2023/11/20 10:13:44;;;;;;;19.20;4.70;;;;;;;14.88;64.16;100863.94;6121386;23;123833;-80
2023/11/20 10:16:22;;;;;;;19.60;4.68;;;;;;;14.87;64.13;100859.56;6120886;23;114019;-80
2023/11/20 10:18:52;;;;;;;16.50;4.47;;;;;;;14.88;64.16;100853.28;6123878;23;114551;-79
2023/11/20 10:21:20;;;;;;;20.17;4.72;;;;;;;14.87;63.89;100856.88;6113116;23;122834;-79
2023/11/20 10:23:54;;;;;;;11.82;4.55;;;;;;;14.84;63.89;100851.72;6114066;23;123411;-80
2023/11/20 10:26:23;;;;;;;15.48;4.68;;;;;;;14.84;63.89;100857.06;6113016;23;113439;-79
2023/11/20 10:28:50;;;;;;;19.30;4.78;;;;;;;14.83;63.70;100850.03;6122619;23;114182;-80
2023/11/20 10:31:18;;;;;;;14.38;4.40;;;;;;;14.83;63.75;100855.38;6122339;23;124117;-81
2023/11/20 10:33:45;;;;;;;20.52;4.43;;;;;;;14.86;63.88;100847.19;6119516;23;122944;-80
2023/11/20 10:36:15;;;;;;;13.82;4.50;;;;;;;14.92;64.01;100849.47;6121601;23;114104;-80
2023/11/20 10:38:43;;;;;;;12.98;3.65;;;;;;;14.98;64.07;100843.72;6120517;23;115024;-81
2023/11/20 10:41:11;;;;;;;12.10;4.05;;;;;;;15.05;63.92;100846.00;6145460;22;124270;-80
2023/11/20 10:43:40;;;;;;;16.58;4.68;;;;;;;15.11;63.87;100842.97;6121626;23;122612;-80
2023/11/20 10:46:08;;;;;;;18.35;3.88;;;;;;;15.17;63.87;100837.22;6151319;22;114325;-81
2023/11/20 10:48:37;;;;;;;13.90;3.58;;;;;;;15.21;63.67;100828.06;6125401;23;112905;-81
2023/11/20 10:51:09;;;;;;;16.70;3.83;;;;;;;15.24;63.48;100827.00;6124545;23;123209;-81
2023/11/20 10:53:39;;;;;;;13.40;3.88;;;;;;;15.24;63.45;100827.88;6123439;22;122345;-81
2023/11/20 10:56:07;;;;;;;14.18;4.05;;;;;;;15.25;63.34;100818.03;6123929;23;114478;-82
2023/11/20 10:58:35;;;;;;;12.40;3.47;;;;;;;15.27;63.42;100824.97;6124067;23;113263;-81
2023/11/20 11:01:04;;;;;;;14.43;3.63;;;;;;;15.29;63.41;100820.41;6124238;23;123063;-82
2023/11/20 11:03:32;;;;;;;18.75;3.80;;;;;;;15.32;63.20;100820.22;6125066;22;124002;-83
2023/11/20 11:06:03;;;;;;;14.70;3.38;;;;;;;15.34;62.88;100818.28;6124766;23;114745;-81
2023/11/20 11:08:31;;;;;;;16.10;3.40;;;;;;;15.32;62.90;100814.88;6098656;23;113624;-82
2023/11/20 11:10:58;;;;;;;10.00;3.40;;;;;;;15.32;62.63;100814.88;6123555;23;123240;-82
2023/11/20 11:13:33;;;;;;;15.95;3.97;;;;;;;15.31;62.31;100818.50;6120065;23;123712;-84
2023/11/20 11:16:06;;;;;;;13.48;3.53;;;;;;;15.28;62.17;100808.03;6115080;23;112927;-83